sensor_id;sensor_type;location;lat;lon;timestamp;P1;durP1;ratioP1;P2;durP2;ratioP2
35578;SDS011;21687;48.900;9.188;2023-06-26T00:01:38;7.77;;;6.97;;
35578;SDS011;21687;48.900;9.188;2023-06-26T00:04:05;10.80;;;7.37;;
35578;SDS011;21687;48.900;9.188;2023-06-26T00:06:31;8.27;;;7.13;;
35578;SDS011;21687;48.900;9.188;2023-06-26T00:08:57;9.07;;;7.20;;
35578;SDS011;21687;48.900;9.188;2023-06-26T00:11:24;7.93;;;6.63;;
35578;SDS011;21687;48.900;9.188;2023-06-26T00:13:52;8.87;;;6.93;;
35578;SDS011;21687;48.900;9.188;2023-06-26T00:16:18;9.07;;;7.07;;
35578;SDS011;21687;48.900;9.188;2023-06-26T00:18:45;8.43;;;7.17;;
35578;SDS011;21687;48.900;9.188;2023-06-26T00:21:11;7.80;;;7.00;;
35578;SDS011;21687;48.900;9.188;2023-06-26T00:23:37;8.57;;;6.83;;
35578;SDS011;21687;48.900;9.188;2023-06-26T00:26:04;9.23;;;6.70;;
35578;SDS011;21687;48.900;9.188;2023-06-26T00:28:30;8.97;;;7.47;;
35578;SDS011;21687;48.900;9.188;2023-06-26T00:30:57;8.37;;;6.97;;
35578;SDS011;21687;48.900;9.188;2023-06-26T00:33:23;8.57;;;7.10;;
35578;SDS011;21687;48.900;9.188;2023-06-26T00:35:49;9.70;;;7.53;;
35578;SDS011;21687;48.900;9.188;2023-06-26T00:38:15;9.60;;;7.70;;
35578;SDS011;21687;48.900;9.188;2023-06-26T00:40:42;8.13;;;7.07;;
35578;SDS011;21687;48.900;9.188;2023-06-26T00:43:09;9.70;;;7.43;;
35578;SDS011;21687;48.900;9.188;2023-06-26T00:45:35;9.43;;;7.30;;
35578;SDS011;21687;48.900;9.188;2023-06-26T00:48:01;9.03;;;7.40;;
35578;SDS011;21687;48.900;9.188;2023-06-26T00:50:28;9.57;;;7.40;;
35578;SDS011;21687;48.900;9.188;2023-06-26T00:52:55;12.97;;;7.63;;
35578;SDS011;21687;48.900;9.188;2023-06-26T00:55:26;9.73;;;7.33;;
35578;SDS011;21687;48.900;9.188;2023-06-26T00:57:54;8.80;;;7.03;;
35578;SDS011;21687;48.900;9.188;2023-06-26T01:00:21;9.43;;;7.37;;
35578;SDS011;21687;48.900;9.188;2023-06-26T01:02:47;9.37;;;7.40;;
35578;SDS011;21687;48.900;9.188;2023-06-26T01:05:14;8.73;;;6.93;;
35578;SDS011;21687;48.900;9.188;2023-06-26T01:07:45;10.03;;;7.27;;
35578;SDS011;21687;48.900;9.188;2023-06-26T01:10:13;9.03;;;7.37;;
35578;SDS011;21687;48.900;9.188;2023-06-26T01:12:40;9.33;;;7.80;;
35578;SDS011;21687;48.900;9.188;2023-06-26T01:15:06;9.80;;;7.63;;
35578;SDS011;21687;48.900;9.188;2023-06-26T01:17:33;8.87;;;7.10;;
35578;SDS011;21687;48.900;9.188;2023-06-26T01:20:03;8.00;;;6.90;;
35578;SDS011;21687;48.900;9.188;2023-06-26T01:22:39;8.40;;;7.50;;
35578;SDS011;21687;48.900;9.188;2023-06-26T01:28:13;9.07;;;7.80;;
35578;SDS011;21687;48.900;9.188;2023-06-26T01:30:41;7.87;;;7.07;;
35578;SDS011;21687;48.900;9.188;2023-06-26T01:33:09;8.37;;;7.43;;
35578;SDS011;21687;48.900;9.188;2023-06-26T01:35:37;10.03;;;8.07;;
35578;SDS011;21687;48.900;9.188;2023-06-26T01:38:19;10.70;;;8.10;;
35578;SDS011;21687;48.900;9.188;2023-06-26T01:40:48;8.90;;;7.60;;
35578;SDS011;21687;48.900;9.188;2023-06-26T01:43:18;8.80;;;7.53;;
35578;SDS011;21687;48.900;9.188;2023-06-26T01:45:56;8.03;;;7.20;;
35578;SDS011;21687;48.900;9.188;2023-06-26T01:48:28;9.23;;;7.83;;
35578;SDS011;21687;48.900;9.188;2023-06-26T01:51:00;8.87;;;7.90;;
35578;SDS011;21687;48.900;9.188;2023-06-26T01:53:30;8.67;;;7.00;;
35578;SDS011;21687;48.900;9.188;2023-06-26T01:56:08;8.80;;;7.87;;
35578;SDS011;21687;48.900;9.188;2023-06-26T01:58:40;8.10;;;7.27;;
35578;SDS011;21687;48.900;9.188;2023-06-26T02:01:10;9.70;;;7.80;;
35578;SDS011;21687;48.900;9.188;2023-06-26T02:03:37;9.63;;;7.63;;
35578;SDS011;21687;48.900;9.188;2023-06-26T02:06:04;9.37;;;7.90;;
35578;SDS011;21687;48.900;9.188;2023-06-26T02:08:30;9.30;;;8.23;;
35578;SDS011;21687;48.900;9.188;2023-06-26T02:10:57;9.43;;;8.37;;
35578;SDS011;21687;48.900;9.188;2023-06-26T02:13:23;8.83;;;7.80;;
35578;SDS011;21687;48.900;9.188;2023-06-26T02:15:50;10.57;;;7.27;;
35578;SDS011;21687;48.900;9.188;2023-06-26T02:18:16;9.27;;;8.17;;
35578;SDS011;21687;48.900;9.188;2023-06-26T02:20:42;8.40;;;7.50;;
35578;SDS011;21687;48.900;9.188;2023-06-26T02:23:09;8.40;;;7.50;;
35578;SDS011;21687;48.900;9.188;2023-06-26T02:25:35;8.93;;;7.97;;
35578;SDS011;21687;48.900;9.188;2023-06-26T02:28:02;9.13;;;7.43;;
35578;SDS011;21687;48.900;9.188;2023-06-26T02:30:28;10.03;;;7.50;;
35578;SDS011;21687;48.900;9.188;2023-06-26T02:32:54;9.33;;;8.10;;
35578;SDS011;21687;48.900;9.188;2023-06-26T02:35:21;9.03;;;8.10;;
35578;SDS011;21687;48.900;9.188;2023-06-26T02:37:47;9.07;;;8.03;;
35578;SDS011;21687;48.900;9.188;2023-06-26T02:40:13;8.77;;;7.30;;
35578;SDS011;21687;48.900;9.188;2023-06-26T02:42:40;12.50;;;8.33;;
35578;SDS011;21687;48.900;9.188;2023-06-26T02:45:07;9.53;;;7.60;;
35578;SDS011;21687;48.900;9.188;2023-06-26T02:47:34;9.17;;;7.43;;
35578;SDS011;21687;48.900;9.188;2023-06-26T02:50:02;8.63;;;7.43;;
35578;SDS011;21687;48.900;9.188;2023-06-26T02:52:28;10.07;;;7.60;;
35578;SDS011;21687;48.900;9.188;2023-06-26T02:54:55;9.33;;;7.90;;
35578;SDS011;21687;48.900;9.188;2023-06-26T02:57:21;8.93;;;7.70;;
35578;SDS011;21687;48.900;9.188;2023-06-26T02:59:47;8.67;;;7.40;;
35578;SDS011;21687;48.900;9.188;2023-06-26T03:02:16;9.70;;;8.03;;
35578;SDS011;21687;48.900;9.188;2023-06-26T03:04:43;9.70;;;8.33;;
35578;SDS011;21687;48.900;9.188;2023-06-26T03:07:09;9.50;;;7.57;;
35578;SDS011;21687;48.900;9.188;2023-06-26T03:09:36;8.43;;;7.50;;
35578;SDS011;21687;48.900;9.188;2023-06-26T03:12:02;9.87;;;8.30;;
35578;SDS011;21687;48.900;9.188;2023-06-26T03:14:28;9.43;;;7.73;;
35578;SDS011;21687;48.900;9.188;2023-06-26T03:16:56;8.73;;;7.83;;
35578;SDS011;21687;48.900;9.188;2023-06-26T03:19:24;8.80;;;7.90;;
35578;SDS011;21687;48.900;9.188;2023-06-26T03:21:50;9.27;;;7.50;;
35578;SDS011;21687;48.900;9.188;2023-06-26T03:24:17;11.13;;;8.00;;
35578;SDS011;21687;48.900;9.188;2023-06-26T03:26:43;9.00;;;7.80;;
35578;SDS011;21687;48.900;9.188;2023-06-26T03:29:09;9.53;;;8.07;;
35578;SDS011;21687;48.900;9.188;2023-06-26T03:31:36;10.40;;;8.77;;
35578;SDS011;21687;48.900;9.188;2023-06-26T03:34:02;9.77;;;7.97;;
35578;SDS011;21687;48.900;9.188;2023-06-26T03:36:28;10.90;;;8.50;;
35578;SDS011;21687;48.900;9.188;2023-06-26T03:38:54;9.50;;;8.13;;
35578;SDS011;21687;48.900;9.188;2023-06-26T03:41:25;9.57;;;8.00;;
35578;SDS011;21687;48.900;9.188;2023-06-26T03:43:51;10.97;;;8.87;;
35578;SDS011;21687;48.900;9.188;2023-06-26T03:46:17;9.83;;;8.10;;
35578;SDS011;21687;48.900;9.188;2023-06-26T03:48:44;9.17;;;8.17;;
35578;SDS011;21687;48.900;9.188;2023-06-26T03:51:11;8.90;;;7.83;;
35578;SDS011;21687;48.900;9.188;2023-06-26T03:53:38;9.80;;;7.70;;
35578;SDS011;21687;48.900;9.188;2023-06-26T03:56:04;10.70;;;8.30;;
35578;SDS011;21687;48.900;9.188;2023-06-26T03:58:31;9.23;;;7.93;;
35578;SDS011;21687;48.900;9.188;2023-06-26T04:00:57;9.37;;;7.77;;
35578;SDS011;21687;48.900;9.188;2023-06-26T04:03:24;9.80;;;7.53;;
35578;SDS011;21687;48.900;9.188;2023-06-26T04:05:50;10.87;;;8.00;;
35578;SDS011;21687;48.900;9.188;2023-06-26T04:08:16;9.13;;;7.90;;
35578;SDS011;21687;48.900;9.188;2023-06-26T04:10:44;11.90;;;7.63;;
35578;SDS011;21687;48.900;9.188;2023-06-26T04:13:13;8.97;;;7.67;;
35578;SDS011;21687;48.900;9.188;2023-06-26T04:15:40;9.27;;;7.43;;
35578;SDS011;21687;48.900;9.188;2023-06-26T04:18:06;11.23;;;8.07;;
35578;SDS011;21687;48.900;9.188;2023-06-26T04:20:32;8.70;;;6.97;;
35578;SDS011;21687;48.900;9.188;2023-06-26T04:23:03;11.23;;;7.63;;
35578;SDS011;21687;48.900;9.188;2023-06-26T04:25:30;10.23;;;8.20;;
35578;SDS011;21687;48.900;9.188;2023-06-26T04:27:56;9.93;;;8.40;;
35578;SDS011;21687;48.900;9.188;2023-06-26T04:30:22;8.70;;;7.77;;
35578;SDS011;21687;48.900;9.188;2023-06-26T04:32:49;9.10;;;7.57;;
35578;SDS011;21687;48.900;9.188;2023-06-26T04:35:15;9.40;;;7.77;;
35578;SDS011;21687;48.900;9.188;2023-06-26T04:37:42;8.47;;;7.30;;
35578;SDS011;21687;48.900;9.188;2023-06-26T04:40:08;12.90;;;7.47;;
35578;SDS011;21687;48.900;9.188;2023-06-26T04:42:36;10.87;;;7.57;;
35578;SDS011;21687;48.900;9.188;2023-06-26T04:45:03;11.03;;;7.97;;
35578;SDS011;21687;48.900;9.188;2023-06-26T04:47:30;11.50;;;8.03;;
35578;SDS011;21687;48.900;9.188;2023-06-26T04:49:56;12.40;;;7.20;;
35578;SDS011;21687;48.900;9.188;2023-06-26T04:52:22;10.40;;;7.10;;
35578;SDS011;21687;48.900;9.188;2023-06-26T04:54:49;8.80;;;7.57;;
35578;SDS011;21687;48.900;9.188;2023-06-26T04:57:15;9.43;;;7.77;;
35578;SDS011;21687;48.900;9.188;2023-06-26T04:59:43;10.20;;;8.03;;
35578;SDS011;21687;48.900;9.188;2023-06-26T05:02:09;9.43;;;7.40;;
35578;SDS011;21687;48.900;9.188;2023-06-26T05:04:37;8.70;;;7.40;;
35578;SDS011;21687;48.900;9.188;2023-06-26T05:07:04;10.37;;;7.30;;
35578;SDS011;21687;48.900;9.188;2023-06-26T05:09:31;8.00;;;7.20;;
35578;SDS011;21687;48.900;9.188;2023-06-26T05:11:57;11.20;;;7.43;;
35578;SDS011;21687;48.900;9.188;2023-06-26T05:14:24;10.53;;;7.40;;
35578;SDS011;21687;48.900;9.188;2023-06-26T05:16:50;9.07;;;7.33;;
35578;SDS011;21687;48.900;9.188;2023-06-26T05:19:16;14.67;;;7.40;;
35578;SDS011;21687;48.900;9.188;2023-06-26T05:21:43;10.03;;;7.50;;
35578;SDS011;21687;48.900;9.188;2023-06-26T05:24:09;10.90;;;7.83;;
35578;SDS011;21687;48.900;9.188;2023-06-26T05:26:38;8.40;;;7.50;;
35578;SDS011;21687;48.900;9.188;2023-06-26T05:29:04;8.43;;;7.33;;
35578;SDS011;21687;48.900;9.188;2023-06-26T05:31:32;10.80;;;7.63;;
35578;SDS011;21687;48.900;9.188;2023-06-26T05:34:00;8.87;;;7.63;;
35578;SDS011;21687;48.900;9.188;2023-06-26T05:36:29;11.30;;;7.60;;
35578;SDS011;21687;48.900;9.188;2023-06-26T05:38:59;8.17;;;7.27;;
35578;SDS011;21687;48.900;9.188;2023-06-26T05:41:25;9.37;;;6.93;;
35578;SDS011;21687;48.900;9.188;2023-06-26T05:43:52;11.63;;;7.63;;
35578;SDS011;21687;48.900;9.188;2023-06-26T05:46:19;8.57;;;7.67;;
35578;SDS011;21687;48.900;9.188;2023-06-26T05:48:45;7.63;;;6.83;;
35578;SDS011;21687;48.900;9.188;2023-06-26T05:51:12;9.53;;;7.40;;
35578;SDS011;21687;48.900;9.188;2023-06-26T05:53:39;8.00;;;7.20;;
35578;SDS011;21687;48.900;9.188;2023-06-26T05:56:06;11.57;;;7.50;;
35578;SDS011;21687;48.900;9.188;2023-06-26T05:58:32;9.03;;;7.87;;
35578;SDS011;21687;48.900;9.188;2023-06-26T06:00:59;8.93;;;7.30;;
35578;SDS011;21687;48.900;9.188;2023-06-26T06:03:26;9.40;;;7.77;;
35578;SDS011;21687;48.900;9.188;2023-06-26T06:05:52;9.23;;;7.73;;
35578;SDS011;21687;48.900;9.188;2023-06-26T06:08:18;8.97;;;7.03;;
35578;SDS011;21687;48.900;9.188;2023-06-26T06:10:45;8.33;;;7.33;;
35578;SDS011;21687;48.900;9.188;2023-06-26T06:13:11;8.77;;;7.00;;
35578;SDS011;21687;48.900;9.188;2023-06-26T06:15:38;8.40;;;7.03;;
35578;SDS011;21687;48.900;9.188;2023-06-26T06:18:04;9.13;;;8.17;;
35578;SDS011;21687;48.900;9.188;2023-06-26T06:20:31;9.57;;;7.70;;
35578;SDS011;21687;48.900;9.188;2023-06-26T06:22:57;7.37;;;6.53;;
35578;SDS011;21687;48.900;9.188;2023-06-26T06:25:25;7.63;;;6.93;;
35578;SDS011;21687;48.900;9.188;2023-06-26T06:27:51;8.70;;;7.63;;
35578;SDS011;21687;48.900;9.188;2023-06-26T06:30:21;9.07;;;7.27;;
35578;SDS011;21687;48.900;9.188;2023-06-26T06:32:47;9.40;;;7.57;;
35578;SDS011;21687;48.900;9.188;2023-06-26T06:35:17;8.87;;;7.47;;
35578;SDS011;21687;48.900;9.188;2023-06-26T06:37:44;8.07;;;7.27;;
35578;SDS011;21687;48.900;9.188;2023-06-26T06:40:10;10.87;;;7.93;;
35578;SDS011;21687;48.900;9.188;2023-06-26T06:42:37;8.23;;;7.40;;
35578;SDS011;21687;48.900;9.188;2023-06-26T06:45:04;11.33;;;7.30;;
35578;SDS011;21687;48.900;9.188;2023-06-26T06:47:31;15.07;;;8.17;;
35578;SDS011;21687;48.900;9.188;2023-06-26T06:49:59;8.83;;;7.90;;
35578;SDS011;21687;48.900;9.188;2023-06-26T06:52:42;8.23;;;7.17;;
35578;SDS011;21687;48.900;9.188;2023-06-26T06:55:08;7.40;;;6.63;;
35578;SDS011;21687;48.900;9.188;2023-06-26T06:57:35;7.90;;;7.07;;
35578;SDS011;21687;48.900;9.188;2023-06-26T07:00:11;8.20;;;7.40;;
35578;SDS011;21687;48.900;9.188;2023-06-26T07:02:44;7.80;;;7.10;;
35578;SDS011;21687;48.900;9.188;2023-06-26T07:05:12;8.73;;;6.80;;
35578;SDS011;21687;48.900;9.188;2023-06-26T07:07:38;10.77;;;7.00;;
35578;SDS011;21687;48.900;9.188;2023-06-26T07:10:08;8.70;;;7.10;;
35578;SDS011;21687;48.900;9.188;2023-06-26T07:12:37;9.07;;;6.83;;
35578;SDS011;21687;48.900;9.188;2023-06-26T07:15:04;8.13;;;5.87;;
35578;SDS011;21687;48.900;9.188;2023-06-26T07:17:31;9.50;;;6.23;;
35578;SDS011;21687;48.900;9.188;2023-06-26T07:19:59;7.73;;;5.77;;
35578;SDS011;21687;48.900;9.188;2023-06-26T07:25:49;8.27;;;6.63;;
35578;SDS011;21687;48.900;9.188;2023-06-26T07:28:15;8.80;;;6.37;;
35578;SDS011;21687;48.900;9.188;2023-06-26T07:30:41;7.37;;;6.67;;
35578;SDS011;21687;48.900;9.188;2023-06-26T07:33:08;7.93;;;6.30;;
35578;SDS011;21687;48.900;9.188;2023-06-26T07:38:58;6.97;;;6.23;;
35578;SDS011;21687;48.900;9.188;2023-06-26T07:41:24;6.70;;;6.10;;
35578;SDS011;21687;48.900;9.188;2023-06-26T07:43:51;6.63;;;6.00;;
35578;SDS011;21687;48.900;9.188;2023-06-26T07:46:17;6.60;;;6.00;;
35578;SDS011;21687;48.900;9.188;2023-06-26T07:48:43;6.23;;;5.63;;
35578;SDS011;21687;48.900;9.188;2023-06-26T07:51:10;6.37;;;5.77;;
35578;SDS011;21687;48.900;9.188;2023-06-26T07:53:39;10.53;;;6.13;;
35578;SDS011;21687;48.900;9.188;2023-06-26T07:56:05;6.67;;;6.00;;
35578;SDS011;21687;48.900;9.188;2023-06-26T07:58:31;6.27;;;5.60;;
35578;SDS011;21687;48.900;9.188;2023-06-26T08:00:58;6.43;;;5.83;;
35578;SDS011;21687;48.900;9.188;2023-06-26T08:03:24;6.17;;;5.57;;
35578;SDS011;21687;48.900;9.188;2023-06-26T08:05:51;6.37;;;5.77;;
35578;SDS011;21687;48.900;9.188;2023-06-26T08:08:18;7.60;;;5.80;;
35578;SDS011;21687;48.900;9.188;2023-06-26T08:10:45;6.67;;;6.07;;
35578;SDS011;21687;48.900;9.188;2023-06-26T08:13:11;6.20;;;5.60;;
35578;SDS011;21687;48.900;9.188;2023-06-26T08:15:38;6.17;;;5.57;;
35578;SDS011;21687;48.900;9.188;2023-06-26T08:18:04;6.43;;;5.83;;
35578;SDS011;21687;48.900;9.188;2023-06-26T08:20:31;5.83;;;5.33;;
35578;SDS011;21687;48.900;9.188;2023-06-26T08:22:57;6.80;;;6.10;;
35578;SDS011;21687;48.900;9.188;2023-06-26T08:25:24;7.63;;;5.70;;
35578;SDS011;21687;48.900;9.188;2023-06-26T08:27:50;6.30;;;5.70;;
35578;SDS011;21687;48.900;9.188;2023-06-26T08:30:17;5.33;;;4.83;;
35578;SDS011;21687;48.900;9.188;2023-06-26T08:32:44;6.23;;;5.63;;
35578;SDS011;21687;48.900;9.188;2023-06-26T08:35:10;7.63;;;6.00;;
35578;SDS011;21687;48.900;9.188;2023-06-26T08:37:37;7.80;;;5.33;;
35578;SDS011;21687;48.900;9.188;2023-06-26T08:40:04;7.07;;;6.03;;
35578;SDS011;21687;48.900;9.188;2023-06-26T08:42:31;6.20;;;5.60;;
35578;SDS011;21687;48.900;9.188;2023-06-26T08:44:57;6.57;;;5.50;;
35578;SDS011;21687;48.900;9.188;2023-06-26T08:47:24;5.80;;;5.27;;
35578;SDS011;21687;48.900;9.188;2023-06-26T08:49:53;6.30;;;5.70;;
35578;SDS011;21687;48.900;9.188;2023-06-26T08:55:18;6.00;;;5.40;;
35578;SDS011;21687;48.900;9.188;2023-06-26T08:57:47;8.00;;;5.43;;
35578;SDS011;21687;48.900;9.188;2023-06-26T09:00:13;5.50;;;5.10;;
35578;SDS011;21687;48.900;9.188;2023-06-26T09:02:40;5.70;;;5.20;;
35578;SDS011;21687;48.900;9.188;2023-06-26T09:05:07;5.87;;;5.33;;
35578;SDS011;21687;48.900;9.188;2023-06-26T09:07:33;6.70;;;5.13;;
35578;SDS011;21687;48.900;9.188;2023-06-26T09:09:59;6.27;;;5.37;;
35578;SDS011;21687;48.900;9.188;2023-06-26T09:12:26;5.20;;;4.67;;
35578;SDS011;21687;48.900;9.188;2023-06-26T09:14:54;5.60;;;5.00;;
35578;SDS011;21687;48.900;9.188;2023-06-26T09:17:25;7.27;;;4.97;;
35578;SDS011;21687;48.900;9.188;2023-06-26T09:19:54;4.77;;;4.37;;
35578;SDS011;21687;48.900;9.188;2023-06-26T09:22:21;4.87;;;4.47;;
35578;SDS011;21687;48.900;9.188;2023-06-26T09:24:48;4.30;;;4.00;;
35578;SDS011;21687;48.900;9.188;2023-06-26T09:27:15;5.10;;;4.50;;
35578;SDS011;21687;48.900;9.188;2023-06-26T09:29:44;5.50;;;4.57;;
35578;SDS011;21687;48.900;9.188;2023-06-26T09:32:13;5.80;;;4.37;;
35578;SDS011;21687;48.900;9.188;2023-06-26T09:34:40;7.43;;;4.50;;
35578;SDS011;21687;48.900;9.188;2023-06-26T09:37:11;6.50;;;4.87;;
35578;SDS011;21687;48.900;9.188;2023-06-26T09:39:39;4.70;;;4.30;;
35578;SDS011;21687;48.900;9.188;2023-06-26T09:42:05;4.57;;;4.20;;
35578;SDS011;21687;48.900;9.188;2023-06-26T09:44:32;4.90;;;4.50;;
35578;SDS011;21687;48.900;9.188;2023-06-26T09:46:59;5.10;;;4.23;;
35578;SDS011;21687;48.900;9.188;2023-06-26T09:49:29;5.00;;;4.60;;
35578;SDS011;21687;48.900;9.188;2023-06-26T09:51:56;5.53;;;5.03;;
35578;SDS011;21687;48.900;9.188;2023-06-26T09:54:25;13.17;;;4.70;;
35578;SDS011;21687;48.900;9.188;2023-06-26T09:56:55;7.97;;;4.97;;
35578;SDS011;21687;48.900;9.188;2023-06-26T09:59:31;5.23;;;4.73;;
35578;SDS011;21687;48.900;9.188;2023-06-26T10:01:59;6.07;;;4.93;;
35578;SDS011;21687;48.900;9.188;2023-06-26T10:04:25;9.33;;;4.90;;
35578;SDS011;21687;48.900;9.188;2023-06-26T10:06:52;7.90;;;4.60;;
35578;SDS011;21687;48.900;9.188;2023-06-26T10:09:22;5.73;;;5.00;;
35578;SDS011;21687;48.900;9.188;2023-06-26T10:11:51;5.40;;;4.90;;
35578;SDS011;21687;48.900;9.188;2023-06-26T10:14:25;9.43;;;5.17;;
35578;SDS011;21687;48.900;9.188;2023-06-26T10:16:57;4.87;;;4.47;;
35578;SDS011;21687;48.900;9.188;2023-06-26T10:19:24;10.00;;;5.60;;
35578;SDS011;21687;48.900;9.188;2023-06-26T10:21:53;5.67;;;5.17;;
35578;SDS011;21687;48.900;9.188;2023-06-26T10:24:20;5.93;;;5.33;;
35578;SDS011;21687;48.900;9.188;2023-06-26T10:26:52;6.00;;;5.40;;
35578;SDS011;21687;48.900;9.188;2023-06-26T10:29:24;11.67;;;5.10;;
35578;SDS011;21687;48.900;9.188;2023-06-26T10:31:52;8.27;;;5.27;;
35578;SDS011;21687;48.900;9.188;2023-06-26T10:34:22;6.33;;;5.73;;
35578;SDS011;21687;48.900;9.188;2023-06-26T10:36:58;5.37;;;4.97;;
35578;SDS011;21687;48.900;9.188;2023-06-26T10:39:26;6.00;;;4.90;;
35578;SDS011;21687;48.900;9.188;2023-06-26T10:42:08;7.20;;;5.80;;
35578;SDS011;21687;48.900;9.188;2023-06-26T10:44:44;6.83;;;5.40;;
35578;SDS011;21687;48.900;9.188;2023-06-26T10:47:12;8.40;;;6.03;;
35578;SDS011;21687;48.900;9.188;2023-06-26T10:52:47;10.03;;;5.33;;
35578;SDS011;21687;48.900;9.188;2023-06-26T10:55:32;5.70;;;5.20;;
35578;SDS011;21687;48.900;9.188;2023-06-26T10:57:58;7.40;;;5.57;;
35578;SDS011;21687;48.900;9.188;2023-06-26T11:00:26;6.47;;;5.87;;
35578;SDS011;21687;48.900;9.188;2023-06-26T11:02:53;7.63;;;5.97;;
35578;SDS011;21687;48.900;9.188;2023-06-26T11:05:29;9.00;;;6.30;;
35578;SDS011;21687;48.900;9.188;2023-06-26T11:08:02;6.07;;;5.57;;
35578;SDS011;21687;48.900;9.188;2023-06-26T11:10:29;6.20;;;5.60;;
35578;SDS011;21687;48.900;9.188;2023-06-26T11:13:13;11.23;;;7.43;;
35578;SDS011;21687;48.900;9.188;2023-06-26T11:15:42;6.30;;;5.63;;
35578;SDS011;21687;48.900;9.188;2023-06-26T11:18:10;8.57;;;6.50;;
35578;SDS011;21687;48.900;9.188;2023-06-26T11:20:37;11.50;;;5.80;;
35578;SDS011;21687;48.900;9.188;2023-06-26T11:23:07;8.03;;;5.83;;
35578;SDS011;21687;48.900;9.188;2023-06-26T11:25:37;7.33;;;5.50;;
35578;SDS011;21687;48.900;9.188;2023-06-26T11:28:04;9.20;;;5.67;;
35578;SDS011;21687;48.900;9.188;2023-06-26T11:30:31;7.57;;;6.37;;
35578;SDS011;21687;48.900;9.188;2023-06-26T11:33:07;8.50;;;5.30;;
35578;SDS011;21687;48.900;9.188;2023-06-26T11:35:35;8.13;;;5.80;;
35578;SDS011;21687;48.900;9.188;2023-06-26T11:38:03;5.93;;;5.33;;
35578;SDS011;21687;48.900;9.188;2023-06-26T11:40:33;7.97;;;5.23;;
35578;SDS011;21687;48.900;9.188;2023-06-26T11:43:01;5.87;;;5.17;;
35578;SDS011;21687;48.900;9.188;2023-06-26T11:45:31;11.30;;;5.80;;
35578;SDS011;21687;48.900;9.188;2023-06-26T11:47:58;8.83;;;5.90;;
35578;SDS011;21687;48.900;9.188;2023-06-26T11:50:25;6.23;;;5.33;;
35578;SDS011;21687;48.900;9.188;2023-06-26T11:52:52;6.33;;;5.70;;
35578;SDS011;21687;48.900;9.188;2023-06-26T11:55:23;9.73;;;5.80;;
35578;SDS011;21687;48.900;9.188;2023-06-26T11:57:50;6.93;;;5.80;;
35578;SDS011;21687;48.900;9.188;2023-06-26T12:00:22;6.10;;;5.50;;
35578;SDS011;21687;48.900;9.188;2023-06-26T12:02:49;6.37;;;5.77;;
35578;SDS011;21687;48.900;9.188;2023-06-26T12:05:16;9.73;;;5.47;;
35578;SDS011;21687;48.900;9.188;2023-06-26T12:07:44;8.60;;;5.60;;
35578;SDS011;21687;48.900;9.188;2023-06-26T12:10:12;7.03;;;5.83;;
35578;SDS011;21687;48.900;9.188;2023-06-26T12:12:41;6.87;;;6.17;;
35578;SDS011;21687;48.900;9.188;2023-06-26T12:15:08;6.30;;;5.80;;
35578;SDS011;21687;48.900;9.188;2023-06-26T12:17:39;6.37;;;5.77;;
35578;SDS011;21687;48.900;9.188;2023-06-26T12:20:16;7.63;;;6.07;;
35578;SDS011;21687;48.900;9.188;2023-06-26T12:22:47;6.03;;;5.20;;
35578;SDS011;21687;48.900;9.188;2023-06-26T12:25:14;7.10;;;5.60;;
35578;SDS011;21687;48.900;9.188;2023-06-26T12:27:40;7.03;;;5.33;;
35578;SDS011;21687;48.900;9.188;2023-06-26T12:30:09;7.20;;;6.07;;
35578;SDS011;21687;48.900;9.188;2023-06-26T12:32:36;6.73;;;5.67;;
35578;SDS011;21687;48.900;9.188;2023-06-26T12:35:02;8.37;;;5.80;;
35578;SDS011;21687;48.900;9.188;2023-06-26T12:37:29;6.30;;;5.70;;
35578;SDS011;21687;48.900;9.188;2023-06-26T12:40:05;6.40;;;5.60;;
35578;SDS011;21687;48.900;9.188;2023-06-26T12:42:45;6.33;;;5.73;;
35578;SDS011;21687;48.900;9.188;2023-06-26T12:45:12;5.70;;;5.20;;
35578;SDS011;21687;48.900;9.188;2023-06-26T12:47:39;5.77;;;5.27;;
35578;SDS011;21687;48.900;9.188;2023-06-26T12:50:08;6.30;;;5.53;;
35578;SDS011;21687;48.900;9.188;2023-06-26T12:52:35;5.63;;;5.13;;
35578;SDS011;21687;48.900;9.188;2023-06-26T12:55:02;9.43;;;5.23;;
35578;SDS011;21687;48.900;9.188;2023-06-26T12:57:30;5.87;;;5.30;;
35578;SDS011;21687;48.900;9.188;2023-06-26T12:59:56;6.10;;;5.50;;
35578;SDS011;21687;48.900;9.188;2023-06-26T13:02:22;7.03;;;5.30;;
35578;SDS011;21687;48.900;9.188;2023-06-26T13:04:48;7.17;;;5.27;;
35578;SDS011;21687;48.900;9.188;2023-06-26T13:07:15;9.30;;;5.73;;
35578;SDS011;21687;48.900;9.188;2023-06-26T13:09:41;9.93;;;5.57;;
35578;SDS011;21687;48.900;9.188;2023-06-26T13:12:08;8.47;;;5.07;;
35578;SDS011;21687;48.900;9.188;2023-06-26T13:14:35;5.27;;;4.77;;
35578;SDS011;21687;48.900;9.188;2023-06-26T13:17:01;5.30;;;4.80;;
35578;SDS011;21687;48.900;9.188;2023-06-26T13:19:28;5.63;;;4.97;;
35578;SDS011;21687;48.900;9.188;2023-06-26T13:21:54;6.97;;;4.43;;
35578;SDS011;21687;48.900;9.188;2023-06-26T13:24:21;5.43;;;4.40;;
35578;SDS011;21687;48.900;9.188;2023-06-26T13:26:48;5.87;;;5.03;;
35578;SDS011;21687;48.900;9.188;2023-06-26T13:29:15;5.50;;;4.70;;
35578;SDS011;21687;48.900;9.188;2023-06-26T13:31:41;5.10;;;4.60;;
35578;SDS011;21687;48.900;9.188;2023-06-26T13:34:07;7.90;;;4.60;;
35578;SDS011;21687;48.900;9.188;2023-06-26T13:36:34;7.40;;;5.10;;
35578;SDS011;21687;48.900;9.188;2023-06-26T13:39:00;6.10;;;4.57;;
35578;SDS011;21687;48.900;9.188;2023-06-26T13:41:27;8.03;;;4.67;;
35578;SDS011;21687;48.900;9.188;2023-06-26T13:43:54;5.33;;;4.67;;
35578;SDS011;21687;48.900;9.188;2023-06-26T13:46:20;5.40;;;4.70;;
35578;SDS011;21687;48.900;9.188;2023-06-26T13:48:46;7.90;;;4.40;;
35578;SDS011;21687;48.900;9.188;2023-06-26T13:51:13;7.07;;;4.27;;
35578;SDS011;21687;48.900;9.188;2023-06-26T13:53:39;6.43;;;4.23;;
35578;SDS011;21687;48.900;9.188;2023-06-26T13:56:05;5.53;;;3.93;;
35578;SDS011;21687;48.900;9.188;2023-06-26T13:58:34;5.20;;;4.13;;
35578;SDS011;21687;48.900;9.188;2023-06-26T14:01:01;5.43;;;3.90;;
35578;SDS011;21687;48.900;9.188;2023-06-26T14:03:28;7.03;;;3.50;;
35578;SDS011;21687;48.900;9.188;2023-06-26T14:05:54;4.37;;;3.33;;
35578;SDS011;21687;48.900;9.188;2023-06-26T14:08:21;6.77;;;3.50;;
35578;SDS011;21687;48.900;9.188;2023-06-26T14:10:47;5.87;;;3.50;;
35578;SDS011;21687;48.900;9.188;2023-06-26T14:13:14;3.37;;;2.90;;
35578;SDS011;21687;48.900;9.188;2023-06-26T14:15:41;4.97;;;3.43;;
35578;SDS011;21687;48.900;9.188;2023-06-26T14:18:07;3.63;;;3.30;;
35578;SDS011;21687;48.900;9.188;2023-06-26T14:20:34;4.00;;;3.20;;
35578;SDS011;21687;48.900;9.188;2023-06-26T14:23:01;2.87;;;2.67;;
35578;SDS011;21687;48.900;9.188;2023-06-26T14:25:27;4.07;;;3.30;;
35578;SDS011;21687;48.900;9.188;2023-06-26T14:27:55;4.93;;;3.40;;
35578;SDS011;21687;48.900;9.188;2023-06-26T14:30:21;3.87;;;3.57;;
35578;SDS011;21687;48.900;9.188;2023-06-26T14:32:48;3.60;;;3.27;;
35578;SDS011;21687;48.900;9.188;2023-06-26T14:35:15;5.00;;;3.97;;
35578;SDS011;21687;48.900;9.188;2023-06-26T14:37:42;7.33;;;3.47;;
35578;SDS011;21687;48.900;9.188;2023-06-26T14:40:09;5.20;;;3.60;;
35578;SDS011;21687;48.900;9.188;2023-06-26T14:42:36;3.20;;;2.90;;
35578;SDS011;21687;48.900;9.188;2023-06-26T14:45:02;12.77;;;3.63;;
35578;SDS011;21687;48.900;9.188;2023-06-26T14:47:29;7.47;;;3.50;;
35578;SDS011;21687;48.900;9.188;2023-06-26T14:49:55;3.10;;;2.80;;
35578;SDS011;21687;48.900;9.188;2023-06-26T14:52:22;3.50;;;2.90;;
35578;SDS011;21687;48.900;9.188;2023-06-26T14:54:48;4.23;;;3.40;;
35578;SDS011;21687;48.900;9.188;2023-06-26T14:57:14;3.40;;;3.13;;
35578;SDS011;21687;48.900;9.188;2023-06-26T14:59:41;5.37;;;3.23;;
35578;SDS011;21687;48.900;9.188;2023-06-26T15:02:08;4.40;;;3.17;;
35578;SDS011;21687;48.900;9.188;2023-06-26T15:04:34;5.33;;;3.20;;